createdAt,value
2023-07-24T00:02:01.301Z,21.41
2023-07-24T00:05:04.348Z,21.42
2023-07-24T00:08:08.148Z,21.37
2023-07-24T00:11:10.933Z,21.27
2023-07-24T00:14:13.303Z,21.25
2023-07-24T00:17:16.108Z,21.12
2023-07-24T00:20:18.582Z,21.08
2023-07-24T00:23:21.385Z,21.04
2023-07-24T00:26:23.754Z,20.99
2023-07-24T00:29:26.404Z,20.95
2023-07-24T00:32:28.878Z,20.82
2023-07-24T00:35:31.950Z,20.80
2023-07-24T00:38:35.153Z,20.78
2023-07-24T00:41:38.044Z,20.75
2023-07-24T00:44:40.394Z,20.62
2023-07-24T00:47:44.350Z,20.68
2023-07-24T00:50:49.543Z,20.73
2023-07-24T00:53:52.333Z,20.66
2023-07-24T00:56:54.854Z,20.66
2023-07-24T00:59:57.566Z,20.67
2023-07-24T01:03:00.948Z,20.52
2023-07-24T01:09:07.418Z,20.48
2023-07-24T01:12:13.568Z,20.45
2023-07-24T01:15:22.156Z,20.52
2023-07-24T01:18:25.812Z,20.43
2023-07-24T01:21:35.313Z,20.28
2023-07-24T01:27:57.650Z,20.24
2023-07-24T01:31:01.345Z,20.16
2023-07-24T01:34:05.657Z,20.03
2023-07-24T01:37:08.603Z,20.11
2023-07-24T01:40:11.620Z,19.95
2023-07-24T01:43:14.845Z,20.01
2023-07-24T01:46:17.355Z,20.01
2023-07-24T01:49:20.087Z,20.04
2023-07-24T01:52:22.488Z,20.02
2023-07-24T01:55:26.011Z,19.93
2023-07-24T01:58:30.241Z,19.90
2023-07-24T02:01:33.219Z,19.88
2023-07-24T02:04:35.867Z,19.89
2023-07-24T02:07:39.050Z,19.67
2023-07-24T02:10:41.651Z,19.79
2023-07-24T02:13:47.825Z,19.78
2023-07-24T02:16:50.635Z,19.74
2023-07-24T02:19:53.043Z,19.67
2023-07-24T02:22:55.651Z,19.68
2023-07-24T02:25:57.995Z,19.64
2023-07-24T02:29:00.713Z,19.63
2023-07-24T02:32:03.190Z,19.65
2023-07-24T02:35:06.505Z,19.59
2023-07-24T02:38:09.471Z,19.61
2023-07-24T02:41:12.087Z,19.58
2023-07-24T02:44:14.527Z,19.49
2023-07-24T02:47:17.954Z,19.38
2023-07-24T02:50:20.419Z,19.41
2023-07-24T02:53:23.115Z,19.44
2023-07-24T02:59:31.279Z,19.36
2023-07-24T03:02:35.519Z,19.41
2023-07-24T03:05:38.775Z,19.37
2023-07-24T03:11:46.185Z,19.32
2023-07-24T03:14:48.833Z,19.32
2023-07-24T03:17:51.579Z,19.36
2023-07-24T03:20:54.121Z,19.31
2023-07-24T03:23:56.795Z,19.31
2023-07-24T03:26:59.203Z,19.31
2023-07-24T03:30:01.901Z,19.26
2023-07-24T03:33:05.092Z,19.34
2023-07-24T03:36:07.814Z,19.25
2023-07-24T03:39:12.063Z,19.06
2023-07-24T03:42:26.300Z,19.05
2023-07-24T03:45:28.688Z,19.09
2023-07-24T03:48:31.454Z,19.16
2023-07-24T03:51:34.459Z,19.10
2023-07-24T03:54:37.142Z,19.09
2023-07-24T03:57:39.478Z,19.22
2023-07-24T04:00:42.199Z,19.21
2023-07-24T04:03:45.289Z,19.22
2023-07-24T04:06:48.820Z,19.28
2023-07-24T04:09:51.431Z,19.36
2023-07-24T04:12:53.813Z,19.36
2023-07-24T04:15:58.316Z,19.47
2023-07-24T04:19:00.665Z,19.62
2023-07-24T04:22:03.424Z,19.76
2023-07-24T04:25:07.999Z,19.88
2023-07-24T04:28:10.645Z,20.22
2023-07-24T04:31:13.174Z,20.46
2023-07-24T04:34:16.222Z,20.75
2023-07-24T04:37:19.425Z,21.01
2023-07-24T04:40:22.097Z,21.33
2023-07-24T04:43:24.485Z,21.86
2023-07-24T04:46:27.278Z,22.17
2023-07-24T04:49:31.007Z,22.29
2023-07-24T04:52:33.696Z,22.39
2023-07-24T04:55:36.062Z,22.65
2023-07-24T04:58:38.800Z,22.60
2023-07-24T05:01:41.231Z,22.42
2023-07-24T05:04:43.916Z,22.32
2023-07-24T05:07:46.542Z,22.23
2023-07-24T05:10:55.148Z,22.10
2023-07-24T05:13:59.271Z,22.19
2023-07-24T05:17:01.955Z,22.12
2023-07-24T05:20:06.036Z,22.03
2023-07-24T05:23:09.620Z,22.04
2023-07-24T05:26:11.973Z,22.35
2023-07-24T05:29:14.642Z,22.46
2023-07-24T05:32:17.058Z,22.34
2023-07-24T05:35:19.786Z,22.44
2023-07-24T05:38:22.141Z,22.49
2023-07-24T05:41:24.786Z,22.46
2023-07-24T05:44:27.177Z,22.42
2023-07-24T05:47:29.813Z,22.53
2023-07-24T05:50:33.052Z,22.71
2023-07-24T05:53:35.730Z,22.76
2023-07-24T05:56:40.013Z,22.94
2023-07-24T05:59:43.612Z,23.25
2023-07-24T06:02:46.309Z,23.30
2023-07-24T06:05:53.620Z,23.43
2023-07-24T06:08:55.974Z,23.53
2023-07-24T06:11:58.658Z,23.40
2023-07-24T06:15:01.034Z,23.81
2023-07-24T06:18:03.730Z,23.86
2023-07-24T06:21:06.110Z,23.74
2023-07-24T06:24:13.076Z,23.83
2023-07-24T06:27:15.849Z,23.97
2023-07-24T06:30:18.518Z,23.78
2023-07-24T06:33:22.475Z,23.93
2023-07-24T06:36:25.270Z,24.16
2023-07-24T06:39:29.501Z,24.32
2023-07-24T06:42:32.184Z,24.11
2023-07-24T06:45:34.696Z,24.05
2023-07-24T06:48:37.378Z,24.10
2023-07-24T06:51:39.806Z,24.56
2023-07-24T06:54:42.486Z,24.58
2023-07-24T06:57:44.845Z,24.71
2023-07-24T07:00:47.493Z,25.07
2023-07-24T07:03:50.075Z,25.34
2023-07-24T07:06:52.742Z,25.61
2023-07-24T07:09:55.207Z,25.38
2023-07-24T07:12:57.864Z,25.50
2023-07-24T07:16:00.260Z,25.90
2023-07-24T07:19:02.925Z,25.99
2023-07-24T07:22:05.508Z,26.11
2023-07-24T07:25:08.290Z,26.34
2023-07-24T07:28:10.711Z,26.69
2023-07-24T07:31:13.379Z,27.07
2023-07-24T07:34:15.885Z,27.24
2023-07-24T07:37:18.560Z,28.12
2023-07-24T07:40:20.945Z,29.02
2023-07-24T07:43:23.645Z,29.92
2023-07-24T07:46:26.960Z,30.51
2023-07-24T07:49:31.363Z,31.13
2023-07-24T07:52:33.882Z,32.04
2023-07-24T07:55:36.572Z,32.84
2023-07-24T07:58:38.910Z,32.08
2023-07-24T08:01:41.849Z,32.65
2023-07-24T08:04:44.503Z,31.90
2023-07-24T08:07:46.882Z,32.79
2023-07-24T08:10:49.594Z,33.03
2023-07-24T08:13:51.989Z,34.11
2023-07-24T08:16:54.918Z,34.59
2023-07-24T08:19:57.366Z,35.31
2023-07-24T08:23:00.061Z,35.51
2023-07-24T08:26:03.697Z,35.68
2023-07-24T08:29:06.687Z,35.64
2023-07-24T08:32:09.193Z,36.84
2023-07-24T08:35:11.934Z,36.88
2023-07-24T08:38:14.299Z,36.59
2023-07-24T08:41:16.947Z,34.51
2023-07-24T08:44:19.566Z,35.47
2023-07-24T08:47:22.889Z,36.50
2023-07-24T08:50:26.305Z,36.78
2023-07-24T08:53:30.353Z,37.57
2023-07-24T08:56:33.069Z,36.45
2023-07-24T08:59:36.237Z,36.17
2023-07-24T09:02:38.649Z,36.98
2023-07-24T09:05:41.329Z,38.06
2023-07-24T09:08:44.434Z,38.78
2023-07-24T09:11:52.279Z,35.66
2023-07-24T09:15:07.887Z,37.71
2023-07-24T09:18:11.255Z,38.48
2023-07-24T09:21:14.598Z,38.51
2023-07-24T09:24:17.331Z,38.62
2023-07-24T09:27:19.891Z,38.94
2023-07-24T09:30:24.789Z,40.46
2023-07-24T09:33:38.752Z,40.33
2023-07-24T09:36:41.454Z,39.77
2023-07-24T09:39:47.567Z,41.03
2023-07-24T09:43:14.112Z,40.72
2023-07-24T09:46:13.161Z,37.90
2023-07-24T09:49:16.146Z,40.19
2023-07-24T09:52:20.435Z,38.82
2023-07-24T09:55:30.238Z,38.36
2023-07-24T09:58:38.095Z,41.47
2023-07-24T10:01:40.878Z,39.66
2023-07-24T10:04:44.205Z,39.68
2023-07-24T10:07:48.043Z,38.78
2023-07-24T10:10:53.417Z,39.69
2023-07-24T10:13:56.064Z,37.99
2023-07-24T10:16:58.722Z,39.00
2023-07-24T10:20:04.886Z,39.15
2023-07-24T10:23:10.784Z,39.30
2023-07-24T10:26:15.637Z,40.01
2023-07-24T10:29:19.309Z,38.51
2023-07-24T10:32:21.769Z,40.62
2023-07-24T10:35:25.686Z,38.74
2023-07-24T10:38:55.299Z,39.77
2023-07-24T10:42:06.630Z,39.32
2023-07-24T10:45:09.928Z,41.35
2023-07-24T10:48:13.216Z,39.57
2023-07-24T10:51:15.691Z,40.96
2023-07-24T10:54:21.881Z,40.53
2023-07-24T10:57:28.049Z,37.78
2023-07-24T11:00:30.868Z,38.53
2023-07-24T11:03:33.663Z,38.06
2023-07-24T11:06:36.872Z,37.92
2023-07-24T11:09:41.480Z,39.35
2023-07-24T11:12:44.270Z,37.57
2023-07-24T11:15:47.125Z,39.40
2023-07-24T11:18:55.144Z,39.37
2023-07-24T11:21:59.336Z,37.65
2023-07-24T11:25:05.776Z,39.63
2023-07-24T11:28:10.690Z,37.84
2023-07-24T11:31:13.530Z,39.85
2023-07-24T11:34:17.008Z,40.51
2023-07-24T11:37:20.158Z,40.41
2023-07-24T11:40:23.033Z,39.29
2023-07-24T11:43:26.536Z,39.09
2023-07-24T11:46:30.314Z,38.63
2023-07-24T11:49:33.777Z,37.27
2023-07-24T11:52:44.764Z,38.41
2023-07-24T11:55:47.356Z,36.36
2023-07-24T11:58:49.704Z,37.94
2023-07-24T12:01:52.606Z,37.42
2023-07-24T12:05:01.507Z,37.03
2023-07-24T12:08:05.047Z,36.15
2023-07-24T12:11:18.447Z,34.48
2023-07-24T12:14:20.887Z,34.05
2023-07-24T12:17:23.590Z,33.82
2023-07-24T12:20:26.084Z,34.36
2023-07-24T12:23:28.778Z,34.37
2023-07-24T12:26:31.180Z,34.12
2023-07-24T12:29:33.842Z,34.42
2023-07-24T12:32:36.378Z,34.53
2023-07-24T12:35:39.134Z,34.69
2023-07-24T12:38:41.554Z,34.44
2023-07-24T12:41:44.216Z,34.42
2023-07-24T12:44:46.562Z,34.74
2023-07-24T12:47:49.335Z,34.51
2023-07-24T12:50:52.276Z,34.38
2023-07-24T12:54:09.504Z,34.36
2023-07-24T12:57:17.357Z,34.28
2023-07-24T13:00:20.139Z,34.89
2023-07-24T13:03:22.785Z,35.55
2023-07-24T13:06:25.746Z,35.41
2023-07-24T13:09:28.654Z,34.98
2023-07-24T13:12:31.337Z,35.20
2023-07-24T13:15:33.867Z,35.09
2023-07-24T13:18:36.582Z,34.66
2023-07-24T13:21:40.836Z,34.22
2023-07-24T13:24:43.557Z,34.52
2023-07-24T13:27:46.037Z,34.72
2023-07-24T13:30:48.960Z,34.66
2023-07-24T13:33:51.486Z,34.36
2023-07-24T13:36:54.100Z,33.83
2023-07-24T13:39:56.541Z,33.86
2023-07-24T13:42:59.281Z,34.06
2023-07-24T13:46:03.794Z,33.95
2023-07-24T13:49:07.442Z,34.20
2023-07-24T13:52:09.808Z,34.34
2023-07-24T13:55:12.600Z,34.50
2023-07-24T13:58:14.948Z,34.33
2023-07-24T14:01:17.686Z,34.53
2023-07-24T14:04:20.525Z,34.56
2023-07-24T14:07:22.969Z,34.46
2023-07-24T14:10:25.638Z,34.30
2023-07-24T14:13:28.017Z,33.94
2023-07-24T14:16:30.688Z,34.40
2023-07-24T14:19:33.108Z,34.67
2023-07-24T14:22:35.713Z,34.21
2023-07-24T14:25:38.094Z,34.20
2023-07-24T14:28:40.753Z,33.99
2023-07-24T14:31:43.175Z,33.99
2023-07-24T14:34:53.693Z,33.87
2023-07-24T14:37:56.086Z,33.94
2023-07-24T14:40:58.792Z,33.79
2023-07-24T14:44:01.357Z,33.42
2023-07-24T14:47:04.125Z,33.25
2023-07-24T14:50:07.327Z,33.41
2023-07-24T14:53:10.571Z,33.26
2023-07-24T14:56:13.020Z,33.46
2023-07-24T14:59:15.664Z,33.60
2023-07-24T15:02:18.232Z,33.47
2023-07-24T15:05:21.166Z,33.26
2023-07-24T15:08:23.802Z,33.11
2023-07-24T15:11:26.499Z,32.88
2023-07-24T15:14:28.905Z,32.73
2023-07-24T15:17:31.573Z,32.57
2023-07-24T15:20:34.028Z,32.59
2023-07-24T15:23:36.734Z,32.41
2023-07-24T15:26:39.121Z,32.53
2023-07-24T15:29:41.850Z,32.30
2023-07-24T15:32:44.346Z,32.20
2023-07-24T15:35:47.133Z,32.07
2023-07-24T15:38:51.126Z,32.02
2023-07-24T15:41:53.779Z,31.90
2023-07-24T15:44:56.185Z,31.95
2023-07-24T15:47:58.923Z,32.03
2023-07-24T15:51:02.545Z,31.75
2023-07-24T15:54:09.001Z,31.82
2023-07-24T15:57:11.551Z,31.75
2023-07-24T16:00:14.455Z,31.73
2023-07-24T16:03:17.167Z,31.52
2023-07-24T16:06:19.767Z,31.54
2023-07-24T16:09:23.303Z,31.33
2023-07-24T16:12:25.631Z,31.46
2023-07-24T16:18:33.849Z,31.26
2023-07-24T16:21:37.114Z,31.12
2023-07-24T16:24:39.452Z,30.97
2023-07-24T16:27:42.116Z,30.93
2023-07-24T16:30:44.595Z,30.73
2023-07-24T16:33:49.663Z,30.84
2023-07-24T16:36:52.459Z,30.83
2023-07-24T16:39:55.483Z,30.66
2023-07-24T16:42:58.486Z,30.66
2023-07-24T16:49:06.843Z,30.50
2023-07-24T16:52:10.167Z,30.38
2023-07-24T16:55:12.572Z,30.26
2023-07-24T16:58:15.269Z,30.20
2023-07-24T17:01:17.672Z,30.11
2023-07-24T17:04:20.351Z,30.04
2023-07-24T17:07:22.726Z,29.91
2023-07-24T17:10:25.386Z,29.87
2023-07-24T17:13:27.910Z,29.74
2023-07-24T17:16:31.158Z,29.67
2023-07-24T17:19:33.558Z,29.62
2023-07-24T17:22:37.276Z,29.51
2023-07-24T17:25:40.803Z,29.55
2023-07-24T17:28:44.529Z,29.37
2023-07-24T17:31:47.061Z,29.31
2023-07-24T17:34:50.201Z,29.31
2023-07-24T17:37:52.567Z,29.29
2023-07-24T17:40:57.224Z,29.25
2023-07-24T17:43:59.586Z,29.16
2023-07-24T17:47:02.309Z,29.20
2023-07-24T17:50:08.564Z,29.11
2023-07-24T17:53:11.524Z,29.08
2023-07-24T17:56:13.910Z,28.96
2023-07-24T17:59:16.559Z,28.88
2023-07-24T18:02:18.917Z,28.86
2023-07-24T18:05:21.728Z,28.81
2023-07-24T18:08:24.203Z,28.81
2023-07-24T18:11:26.851Z,28.67
2023-07-24T18:14:29.548Z,28.66
2023-07-24T18:17:34.058Z,28.63
2023-07-24T18:20:36.433Z,28.57
2023-07-24T18:23:39.169Z,28.51
2023-07-24T18:26:41.487Z,28.41
2023-07-24T18:29:46.298Z,28.39
2023-07-24T18:32:48.894Z,28.31
2023-07-24T18:35:54.586Z,28.12
2023-07-24T18:38:57.309Z,28.09
2023-07-24T18:42:00.028Z,27.97
2023-07-24T18:45:02.461Z,27.97
2023-07-24T18:48:07.035Z,28.01
2023-07-24T18:51:09.660Z,28.02
2023-07-24T18:54:14.543Z,27.99
2023-07-24T18:57:17.901Z,28.01
2023-07-24T19:00:20.704Z,28.07
2023-07-24T19:03:23.461Z,28.07
2023-07-24T19:06:26.117Z,28.18
2023-07-24T19:09:28.771Z,28.21
2023-07-24T19:12:31.515Z,28.16
2023-07-24T19:15:33.846Z,27.93
2023-07-24T19:18:36.538Z,27.75
2023-07-24T19:21:39.033Z,27.59
2023-07-24T19:24:41.786Z,27.47
2023-07-24T19:27:44.201Z,27.39
2023-07-24T19:30:53.736Z,27.13
2023-07-24T19:33:56.119Z,26.74
2023-07-24T19:37:00.959Z,26.53
2023-07-24T19:40:05.419Z,26.32
2023-07-24T19:43:08.261Z,26.28
2023-07-24T19:46:10.656Z,26.15
2023-07-24T19:49:13.367Z,26.06
2023-07-24T19:52:15.757Z,25.87
2023-07-24T19:55:18.461Z,25.79
2023-07-24T19:58:32.027Z,25.76
2023-07-24T20:01:36.110Z,25.66
2023-07-24T20:04:38.732Z,25.57
2023-07-24T20:07:41.239Z,25.43
2023-07-24T20:10:44.842Z,25.29
2023-07-24T20:13:47.261Z,25.23
2023-07-24T20:16:49.841Z,25.16
2023-07-24T20:19:52.202Z,25.20
2023-07-24T20:22:55.952Z,25.13
2023-07-24T20:25:58.440Z,24.99
2023-07-24T20:29:01.152Z,24.91
2023-07-24T20:32:07.540Z,24.82
2023-07-24T20:35:10.514Z,24.72
2023-07-24T20:38:42.722Z,24.54
2023-07-24T20:41:46.105Z,24.34
2023-07-24T20:44:52.455Z,24.17
2023-07-24T20:47:55.195Z,24.02
2023-07-24T20:50:57.653Z,24.00
2023-07-24T20:54:00.411Z,23.96
2023-07-24T20:57:02.852Z,23.93
2023-07-24T21:00:06.155Z,23.91
2023-07-24T21:03:08.595Z,23.82
2023-07-24T21:06:11.471Z,23.97
2023-07-24T21:09:15.586Z,23.99
2023-07-24T21:12:19.791Z,23.84
2023-07-24T21:15:24.284Z,23.71
2023-07-24T21:18:26.854Z,23.55
2023-07-24T21:21:29.770Z,23.42
2023-07-24T21:24:32.339Z,23.39
2023-07-24T21:27:35.105Z,23.33
2023-07-24T21:30:37.786Z,23.38
2023-07-24T21:33:41.255Z,23.33
2023-07-24T21:36:43.711Z,23.39
2023-07-24T21:39:46.425Z,23.33
2023-07-24T21:42:48.867Z,23.23
2023-07-24T21:45:54.100Z,23.18
2023-07-24T21:48:56.847Z,23.09
2023-07-24T21:52:01.602Z,23.01
2023-07-24T21:55:04.278Z,22.98
2023-07-24T21:58:07.764Z,22.96
2023-07-24T22:01:10.259Z,22.96
2023-07-24T22:04:13.817Z,22.94
2023-07-24T22:07:16.260Z,22.90
2023-07-24T22:10:19.370Z,22.97
2023-07-24T22:13:21.884Z,22.88
2023-07-24T22:16:24.691Z,22.98
2023-07-24T22:19:27.180Z,22.96
2023-07-24T22:22:31.507Z,22.91
2023-07-24T22:25:33.971Z,22.94
2023-07-24T22:28:37.557Z,22.98
2023-07-24T22:31:40.027Z,22.98
2023-07-24T22:34:42.889Z,22.95
2023-07-24T22:37:45.305Z,22.94
2023-07-24T22:40:47.984Z,22.94
2023-07-24T22:43:50.477Z,23.00
2023-07-24T22:46:55.043Z,22.99
2023-07-24T22:49:57.518Z,22.97
2023-07-24T22:53:00.197Z,22.84
2023-07-24T22:56:02.575Z,23.08
2023-07-24T22:59:19.642Z,23.16
2023-07-24T23:02:22.036Z,23.33
2023-07-24T23:05:24.680Z,23.16
2023-07-24T23:08:26.995Z,23.09
2023-07-24T23:11:29.869Z,23.09
2023-07-24T23:14:34.331Z,23.05
2023-07-24T23:17:37.105Z,23.02
2023-07-24T23:20:39.595Z,22.99
2023-07-24T23:23:42.600Z,22.96
2023-07-24T23:26:44.954Z,22.97
2023-07-24T23:29:47.658Z,22.99
2023-07-24T23:32:50.009Z,23.06
2023-07-24T23:35:54.265Z,23.09
2023-07-24T23:38:56.646Z,23.05
2023-07-24T23:41:59.252Z,22.91
2023-07-24T23:45:01.595Z,22.91
2023-07-24T23:48:04.610Z,23.05
2023-07-24T23:51:17.728Z,23.07
2023-07-24T23:54:20.630Z,23.05
2023-07-24T23:57:22.997Z,23.00
